Time;durP1;ratioP1;P1;durP2;ratioP2;P2;SDS_P1;SDS_P2;PMS_P1;PMS_P2;Temp;Humidity;BMP_temperature;BMP_pressure;BME280_temperature;BME280_humidity;BME280_pressure;Samples;Min_cycle;Max_cycle;Signal;HPM_P1;HPM_P2
2023/08/28 00:02:17;;;;;;;8.02;7.22;;;;;;;24.32;47.84;94556.44;5060440;28;20209;-68
2023/08/28 00:04:44;;;;;;;8.00;7.30;;;;;;;24.30;47.75;94558.94;5076999;28;20221;-69
2023/08/28 00:07:10;;;;;;;7.55;6.75;;;;;;;24.31;47.60;94557.69;5060157;28;20201;-68
2023/08/28 00:09:39;;;;;;;9.63;7.50;;;;;;;24.31;47.66;94551.25;5076234;28;20707;-68
2023/08/28 00:12:07;;;;;;;7.80;7.10;;;;;;;24.29;47.62;94550.91;5059513;28;20263;-68
2023/08/28 00:14:34;;;;;;;8.13;7.28;;;;;;;24.26;47.62;94549.81;5077585;28;20268;-68
2023/08/28 00:17:01;;;;;;;7.95;7.15;;;;;;;24.16;48.06;94536.88;5077333;28;20201;-68
2023/08/28 00:19:28;;;;;;;7.95;7.13;;;;;;;24.10;48.22;94538.69;5059859;28;20274;-68
2023/08/28 00:21:54;;;;;;;7.65;6.88;;;;;;;24.01;48.13;94547.84;5059611;28;20189;-68
2023/08/28 00:24:21;;;;;;;7.20;6.50;;;;;;;23.92;48.35;94540.06;5077361;28;20196;-68
2023/08/28 00:26:49;;;;;;;7.55;6.70;;;;;;;23.87;48.64;94543.44;5059841;28;20571;-68
2023/08/28 00:29:16;;;;;;;7.80;7.10;;;;;;;23.84;48.66;94546.38;5059438;28;20197;-67
2023/08/28 00:31:43;;;;;;;7.13;6.47;;;;;;;23.87;48.67;94540.63;5077324;28;20182;-68
2023/08/28 00:34:09;;;;;;;7.15;6.45;;;;;;;23.88;48.53;94544.22;5077185;28;20204;-67
2023/08/28 00:36:36;;;;;;;6.53;5.97;;;;;;;23.85;48.61;94554.38;5076829;28;20609;-67
2023/08/28 00:39:03;;;;;;;8.02;6.18;;;;;;;23.77;48.59;94556.63;5059480;28;20201;-68
2023/08/28 00:41:30;;;;;;;8.10;6.53;;;;;;;23.70;48.92;94558.88;5077172;28;20201;-67
2023/08/28 00:43:58;;;;;;;7.28;6.03;;;;;;;23.68;48.92;94569.81;5059083;28;20233;-68
2023/08/28 00:46:25;;;;;;;6.35;5.80;;;;;;;23.65;49.02;94568.66;5076758;28;20211;-69
2023/08/28 00:48:52;;;;;;;7.32;5.60;;;;;;;23.66;49.19;94575.06;5059591;28;20192;-69
2023/08/28 00:51:19;;;;;;;7.22;5.65;;;;;;;23.63;48.92;94567.53;5075993;28;20196;-68
2023/08/28 00:53:46;;;;;;;7.25;5.93;;;;;;;23.63;49.12;94564.69;5058921;28;20197;-69
2023/08/28 00:56:12;;;;;;;6.20;5.60;;;;;;;23.62;48.77;94566.72;5059532;28;20189;-69
2023/08/28 00:58:41;;;;;;;7.25;5.68;;;;;;;23.60;48.87;94557.16;5059313;28;20200;-69
2023/08/28 01:01:09;;;;;;;6.35;5.82;;;;;;;23.58;48.69;94552.00;5076343;28;20247;-69
2023/08/28 01:03:36;;;;;;;6.57;5.90;;;;;;;23.54;48.87;94556.94;5076699;28;20261;-69
2023/08/28 01:06:12;;;;;;;6.53;5.88;;;;;;;23.57;49.02;94549.59;5058826;28;20221;-69
2023/08/28 01:08:44;;;;;;;6.22;5.72;;;;;;;23.53;49.29;94546.94;5058940;28;20200;-70
2023/08/28 01:11:14;;;;;;;7.22;6.03;;;;;;;23.51;49.46;94550.19;5076280;28;20188;-70
2023/08/28 01:13:45;;;;;;;7.18;6.50;;;;;;;23.50;49.58;94553.47;5058737;28;20203;-69
2023/08/28 01:16:13;;;;;;;6.68;6.07;;;;;;;23.47;49.68;94565.59;5058820;28;20205;-69
2023/08/28 01:18:40;;;;;;;7.43;6.78;;;;;;;23.42;49.77;94552.88;5059168;28;20208;-69
2023/08/28 01:21:07;;;;;;;8.35;6.13;;;;;;;23.40;49.96;94548.94;5058529;28;20197;-69
2023/08/28 01:23:38;;;;;;;7.25;6.65;;;;;;;23.42;49.52;94552.06;5058003;28;20200;-69
2023/08/28 01:26:07;;;;;;;6.85;6.25;;;;;;;23.37;49.57;94547.03;5058626;28;20213;-69
2023/08/28 01:28:34;;;;;;;6.57;5.95;;;;;;;23.29;50.07;94552.06;5075819;28;20185;-69
2023/08/28 01:31:04;;;;;;;6.22;5.63;;;;;;;23.27;50.20;94551.72;5058377;28;20193;-69
2023/08/28 01:33:32;;;;;;;6.80;5.60;;;;;;;23.28;50.30;94536.44;5058201;28;20266;-69
2023/08/28 01:36:06;;;;;;;6.55;5.90;;;;;;;23.26;49.99;94541.72;5075970;28;20193;-69
2023/08/28 01:38:36;;;;;;;6.63;5.82;;;;;;;23.21;50.13;94540.25;5075302;28;20197;-67
2023/08/28 01:41:08;;;;;;;7.57;5.63;;;;;;;23.22;50.02;94539.00;5057915;28;20200;-68
2023/08/28 01:43:36;;;;;;;7.75;5.65;;;;;;;23.18;50.32;94535.53;5054658;28;20578;-68
2023/08/28 01:46:03;;;;;;;6.22;5.63;;;;;;;23.11;50.71;94530.09;5055818;28;20271;-68
2023/08/28 01:48:30;;;;;;;6.55;5.95;;;;;;;23.02;51.04;94535.59;5056483;28;20230;-69
2023/08/28 01:50:57;;;;;;;6.03;5.50;;;;;;;22.95;50.99;94530.97;5055429;28;20244;-68
2023/08/28 01:53:24;;;;;;;6.05;5.55;;;;;;;22.92;51.36;94525.47;5054889;28;20193;-68
2023/08/28 01:56:26;;;;;;;5.82;5.32;;;;;;;22.94;51.10;94532.19;5054743;28;20201;-68
2023/08/28 01:58:54;;;;;;;6.38;5.88;;;;;;;22.95;51.49;94528.16;5071516;28;20205;-69
2023/08/28 02:01:22;;;;;;;6.65;5.97;;;;;;;22.97;51.51;94524.91;5054787;28;20190;-69
2023/08/28 02:03:48;;;;;;;6.47;5.93;;;;;;;22.96;51.67;94526.16;5071200;28;20197;-68
2023/08/28 02:06:15;;;;;;;6.40;5.80;;;;;;;22.93;51.66;94521.41;5054525;28;20217;-68
2023/08/28 02:08:43;;;;;;;6.07;5.60;;;;;;;22.88;51.83;94522.72;5054768;28;20201;-68
2023/08/28 02:11:10;;;;;;;6.25;5.47;;;;;;;22.84;51.71;94524.84;5054661;28;20604;-68
2023/08/28 02:13:38;;;;;;;6.70;5.65;;;;;;;22.77;52.16;94525.06;5055402;28;20594;-68
2023/08/28 02:16:05;;;;;;;6.10;5.60;;;;;;;22.72;52.18;94525.59;5038559;28;20204;-68
2023/08/28 02:18:32;;;;;;;5.93;5.22;;;;;;;22.71;52.12;94524.81;5055458;28;20263;-69
2023/08/28 02:20:58;;;;;;;6.25;5.75;;;;;;;22.69;52.56;94524.44;5055502;28;20196;-68
2023/08/28 02:23:26;;;;;;;6.60;5.72;;;;;;;22.66;52.71;94522.56;5055448;28;20181;-69
2023/08/28 02:25:53;;;;;;;6.32;5.65;;;;;;;22.63;52.86;94526.25;5053633;28;20225;-69
2023/08/28 02:28:20;;;;;;;5.95;5.35;;;;;;;22.64;52.85;94515.78;5053948;28;20213;-69
2023/08/28 02:30:49;;;;;;;5.57;5.07;;;;;;;22.62;52.68;94513.41;5054444;28;20206;-69
2023/08/28 02:33:16;;;;;;;5.88;5.38;;;;;;;22.60;53.15;94515.88;5054327;28;20198;-69
2023/08/28 02:35:42;;;;;;;6.30;5.70;;;;;;;22.57;52.84;94519.59;5054562;28;20190;-69
2023/08/28 02:38:10;;;;;;;6.95;5.72;;;;;;;22.53;53.01;94507.66;5054760;28;20567;-69
2023/08/28 02:40:37;;;;;;;5.82;5.10;;;;;;;22.47;53.13;94510.22;5054460;28;20296;-69
2023/08/28 02:43:06;;;;;;;6.13;5.53;;;;;;;22.42;53.23;94509.97;5058395;28;20229;-68
2023/08/28 02:45:35;;;;;;;6.15;5.55;;;;;;;22.34;53.37;94515.78;5074245;28;20266;-68
2023/08/28 02:48:04;;;;;;;5.90;5.35;;;;;;;22.28;53.57;94514.75;5075105;28;20250;-68
2023/08/28 02:50:31;;;;;;;6.57;5.97;;;;;;;22.28;53.58;94513.94;5057362;28;20205;-68
2023/08/28 02:52:58;;;;;;;6.22;5.65;;;;;;;22.27;53.79;94506.78;5057388;28;20200;-68
2023/08/28 02:55:25;;;;;;;8.65;6.05;;;;;;;22.27;53.74;94506.78;5074924;28;20206;-68
2023/08/28 02:57:51;;;;;;;6.05;5.50;;;;;;;22.28;53.34;94516.75;5074898;28;20201;-70
2023/08/28 03:00:19;;;;;;;6.82;5.30;;;;;;;22.27;53.63;94515.19;5074813;28;20192;-69
2023/08/28 03:02:47;;;;;;;7.68;5.80;;;;;;;22.24;53.86;94516.06;5074931;28;20185;-68
2023/08/28 03:05:17;;;;;;;5.85;5.22;;;;;;;22.20;53.78;94515.38;5057208;28;20212;-71
2023/08/28 03:07:43;;;;;;;6.13;5.53;;;;;;;22.17;53.80;94516.25;5057209;28;20251;-71
2023/08/28 03:10:10;;;;;;;7.43;5.93;;;;;;;22.11;53.95;94521.59;5057297;28;20190;-70
2023/08/28 03:12:37;;;;;;;5.80;5.30;;;;;;;22.08;54.07;94519.69;5056816;28;20250;-71
2023/08/28 03:15:05;;;;;;;7.75;6.10;;;;;;;22.03;54.20;94520.97;5057107;28;20204;-71
2023/08/28 03:17:32;;;;;;;6.03;5.40;;;;;;;22.00;54.04;94521.06;5057152;28;20200;-72
2023/08/28 03:19:58;;;;;;;5.88;5.38;;;;;;;22.01;54.00;94523.47;5074464;28;20214;-71
2023/08/28 03:22:27;;;;;;;6.45;5.75;;;;;;;22.00;54.01;94524.66;5057331;28;20193;-70
2023/08/28 03:24:54;;;;;;;6.03;5.40;;;;;;;22.00;54.20;94535.09;5057122;28;20292;-71
2023/08/28 03:27:21;;;;;;;6.15;5.30;;;;;;;22.01;54.44;94531.09;5056603;28;20655;-70
2023/08/28 03:29:48;;;;;;;5.85;5.30;;;;;;;21.98;54.34;94529.16;5074800;28;20186;-70
2023/08/28 03:32:15;;;;;;;6.50;5.63;;;;;;;21.87;54.55;94518.97;5073777;28;20613;-70
2023/08/28 03:34:42;;;;;;;7.15;6.32;;;;;;;21.84;54.49;94519.06;5073298;28;20647;-69
2023/08/28 03:37:09;;;;;;;6.93;6.18;;;;;;;21.81;54.50;94519.94;5056691;28;20200;-69
2023/08/28 03:39:37;;;;;;;6.60;5.43;;;;;;;21.78;54.88;94523.63;5056463;28;20525;-69
2023/08/28 03:42:04;;;;;;;6.90;6.00;;;;;;;21.75;54.80;94518.88;5074474;28;20201;-69
2023/08/28 03:44:30;;;;;;;6.50;5.70;;;;;;;21.71;55.02;94513.34;5069982;28;20230;-70
2023/08/28 03:46:57;;;;;;;7.30;5.45;;;;;;;21.67;55.10;94509.06;5053712;28;20351;-70
2023/08/28 03:49:25;;;;;;;7.57;6.30;;;;;;;21.63;55.11;94509.16;5057683;28;20186;-69
2023/08/28 03:51:52;;;;;;;7.75;6.15;;;;;;;21.62;55.22;94507.59;5057662;28;20197;-69
2023/08/28 03:54:19;;;;;;;7.85;6.25;;;;;;;21.59;55.45;94506.44;5057042;28;20198;-70
2023/08/28 03:56:47;;;;;;;8.30;6.40;;;;;;;21.58;55.23;94499.25;5057229;28;20206;-70
2023/08/28 03:59:13;;;;;;;8.07;6.70;;;;;;;21.56;55.41;94500.91;5056951;28;20193;-72
2023/08/28 04:01:40;;;;;;;12.80;6.78;;;;;;;21.52;55.36;94505.81;5057510;28;20186;-69
2023/08/28 04:04:07;;;;;;;10.20;6.70;;;;;;;21.46;55.46;94505.56;5057142;28;20201;-69
2023/08/28 04:06:34;;;;;;;9.10;7.28;;;;;;;21.45;55.68;94506.00;5057605;28;20218;-70
2023/08/28 04:09:00;;;;;;;8.80;6.75;;;;;;;21.42;55.87;94506.84;5057648;28;20598;-70
2023/08/28 04:11:27;;;;;;;13.00;6.75;;;;;;;21.43;55.68;94509.25;5056305;28;20204;-69
2023/08/28 04:13:55;;;;;;;9.32;6.85;;;;;;;21.46;55.92;94516.78;5056695;28;20243;-69
2023/08/28 04:16:22;;;;;;;11.38;6.18;;;;;;;21.45;55.72;94518.00;5057272;28;20190;-70
2023/08/28 04:18:49;;;;;;;10.60;7.00;;;;;;;21.44;55.80;94510.81;5056615;28;20205;-70
2023/08/28 04:21:16;;;;;;;8.02;6.65;;;;;;;21.37;55.72;94502.56;5057095;28;20514;-70
2023/08/28 04:23:42;;;;;;;9.90;7.32;;;;;;;21.30;56.34;94502.69;5057340;28;20189;-70
2023/08/28 04:26:09;;;;;;;6.93;6.32;;;;;;;21.33;55.90;94513.88;5056923;28;20292;-70
2023/08/28 04:28:36;;;;;;;9.23;6.68;;;;;;;21.37;56.09;94508.97;5056595;28;20602;-70
2023/08/28 04:31:04;;;;;;;8.63;6.75;;;;;;;21.42;56.25;94504.84;5056099;28;20225;-69
2023/08/28 04:33:31;;;;;;;9.70;6.88;;;;;;;21.45;56.43;94506.00;5056327;28;20186;-69
2023/08/28 04:35:58;;;;;;;10.13;7.15;;;;;;;21.47;56.29;94500.75;5056202;28;20289;-69
2023/08/28 04:38:25;;;;;;;14.02;7.60;;;;;;;21.49;56.28;94506.69;5056304;28;20212;-70
2023/08/28 04:40:52;;;;;;;13.15;7.85;;;;;;;21.48;56.41;94507.94;5055876;28;20202;-73
2023/08/28 04:43:18;;;;;;;11.02;7.18;;;;;;;21.50;56.39;94514.69;5061800;28;20228;-71
2023/08/28 04:45:45;;;;;;;9.73;6.60;;;;;;;21.49;56.48;94523.53;5076931;28;20185;-75
2023/08/28 04:48:13;;;;;;;11.45;6.60;;;;;;;21.44;56.69;94521.25;5059935;28;20201;-70
2023/08/28 04:50:40;;;;;;;6.13;5.43;;;;;;;21.43;55.63;94519.69;5076694;28;20193;-71
2023/08/28 04:53:07;;;;;;;5.78;5.28;;;;;;;21.47;55.07;94532.41;5075548;28;20212;-71
2023/08/28 04:55:33;;;;;;;6.00;5.40;;;;;;;21.48;55.12;94533.97;5076697;28;20208;-71
2023/08/28 04:58:00;;;;;;;6.22;5.47;;;;;;;21.54;54.96;94537.06;5076379;28;20178;-71
2023/08/28 05:00:27;;;;;;;6.60;5.50;;;;;;;21.53;55.29;94530.66;5059464;28;20208;-70
2023/08/28 05:02:54;;;;;;;5.97;5.35;;;;;;;21.58;55.45;94530.13;5059036;28;20193;-71
2023/08/28 05:05:22;;;;;;;6.78;6.10;;;;;;;21.63;54.91;94526.78;5076413;28;20185;-71
2023/08/28 05:07:49;;;;;;;8.18;5.63;;;;;;;21.65;55.07;94525.56;5076422;28;20209;-71
2023/08/28 05:10:15;;;;;;;6.35;5.80;;;;;;;21.65;54.92;94520.75;5076403;28;20203;-71
2023/08/28 05:12:42;;;;;;;7.00;5.50;;;;;;;21.65;54.75;94515.13;5059166;28;20207;-71
2023/08/28 05:15:10;;;;;;;6.70;5.53;;;;;;;21.66;54.91;94508.28;5076449;28;20566;-71
2023/08/28 05:17:36;;;;;;;5.63;5.07;;;;;;;21.67;54.62;94507.06;5058397;28;20577;-71
2023/08/28 05:20:03;;;;;;;5.85;5.28;;;;;;;21.66;55.02;94511.09;5076704;28;20192;-70
2023/08/28 05:22:32;;;;;;;6.85;5.10;;;;;;;21.68;55.07;94514.25;5059197;28;20204;-71
2023/08/28 05:24:58;;;;;;;6.13;5.10;;;;;;;21.70;54.80;94513.81;5058841;28;20201;-71
2023/08/28 05:27:25;;;;;;;7.07;5.50;;;;;;;21.74;55.12;94514.50;5058406;28;20217;-71
2023/08/28 05:29:53;;;;;;;7.30;5.35;;;;;;;21.77;55.00;94517.22;5076102;28;20189;-72
2023/08/28 05:32:20;;;;;;;5.53;5.03;;;;;;;21.79;54.52;94516.81;5075723;28;20285;-71
2023/08/28 05:34:46;;;;;;;6.03;5.43;;;;;;;21.82;55.01;94513.09;5058434;28;20201;-71
2023/08/28 05:37:13;;;;;;;6.72;5.50;;;;;;;21.81;54.95;94515.13;5075676;28;20185;-71
2023/08/28 05:39:41;;;;;;;6.35;5.30;;;;;;;21.81;54.91;94515.13;5075850;28;20254;-71
2023/08/28 05:42:08;;;;;;;6.32;5.57;;;;;;;21.85;53.94;94512.22;5075962;28;20199;-70
2023/08/28 05:44:34;;;;;;;7.45;5.32;;;;;;;21.90;54.22;94511.72;5054577;28;20260;-72
2023/08/28 05:47:01;;;;;;;5.72;5.22;;;;;;;21.94;54.24;94501.19;5054595;28;20217;-70
2023/08/28 05:49:28;;;;;;;6.90;5.72;;;;;;;21.99;54.16;94499.84;5055660;28;20194;-71
2023/08/28 05:51:55;;;;;;;6.35;5.75;;;;;;;22.01;53.67;94497.41;5055691;28;20256;-71
2023/08/28 05:54:21;;;;;;;5.85;5.35;;;;;;;22.02;52.97;94499.75;5055733;28;20259;-71
2023/08/28 05:56:50;;;;;;;6.30;5.70;;;;;;;22.05;53.01;94498.88;5055779;28;20193;-72
2023/08/28 05:59:17;;;;;;;6.55;5.82;;;;;;;22.12;53.01;94503.53;5055320;28;20194;-71
2023/08/28 06:01:44;;;;;;;6.50;4.97;;;;;;;22.22;53.26;94496.06;5055533;28;20190;-71
2023/08/28 06:04:11;;;;;;;6.15;5.55;;;;;;;22.28;53.16;94495.06;5054590;28;20208;-71
2023/08/28 06:06:38;;;;;;;5.45;4.95;;;;;;;22.39;53.03;94502.44;5055309;28;20228;-71
2023/08/28 06:09:05;;;;;;;5.03;4.57;;;;;;;22.46;52.94;94505.81;5054803;28;20265;-70
2023/08/28 06:11:32;;;;;;;5.72;5.22;;;;;;;22.57;52.91;94502.72;5054601;28;20186;-70
2023/08/28 06:14:00;;;;;;;6.22;4.95;;;;;;;22.67;53.66;94503.66;5054118;28;20209;-70
2023/08/28 06:16:27;;;;;;;7.13;5.50;;;;;;;22.72;53.39;94503.88;5054704;28;20228;-70
2023/08/28 06:18:54;;;;;;;7.50;5.20;;;;;;;22.72;54.50;94520.75;5054400;28;20198;-70
2023/08/28 06:21:21;;;;;;;9.38;5.50;;;;;;;22.74;54.99;94520.31;5055284;28;20194;-70
2023/08/28 06:23:48;;;;;;;6.45;5.38;;;;;;;22.72;56.19;94523.56;5053893;28;20205;-71
2023/08/28 06:26:14;;;;;;;7.32;5.10;;;;;;;22.70;55.84;94525.25;5053986;28;20273;-70
2023/08/28 06:28:41;;;;;;;5.55;5.03;;;;;;;22.70;55.52;94517.63;5054887;28;20177;-70
2023/08/28 06:31:09;;;;;;;7.35;5.97;;;;;;;22.70;55.14;94506.38;5055143;28;20211;-70
2023/08/28 06:33:37;;;;;;;9.20;5.72;;;;;;;22.73;55.26;94515.91;5054219;28;20189;-70
2023/08/28 06:36:04;;;;;;;6.45;5.85;;;;;;;22.74;55.17;94512.69;5055075;28;20181;-71
2023/08/28 06:38:30;;;;;;;6.97;5.40;;;;;;;22.80;54.52;94515.72;5054639;28;20201;-72
2023/08/28 06:40:57;;;;;;;7.18;6.38;;;;;;;22.89;54.47;94520.69;5054324;28;20208;-72
2023/08/28 06:43:24;;;;;;;5.80;5.25;;;;;;;22.89;54.12;94521.47;5060336;28;20665;-71
2023/08/28 06:45:51;;;;;;;5.65;5.10;;;;;;;22.94;54.56;94520.16;5075051;28;20189;-71
2023/08/28 06:48:19;;;;;;;9.40;5.55;;;;;;;22.98;54.82;94518.81;5057273;28;20221;-71
2023/08/28 06:50:45;;;;;;;8.38;5.40;;;;;;;23.05;54.30;94512.97;5075021;28;20370;-71
2023/08/28 06:53:12;;;;;;;7.05;5.90;;;;;;;23.08;55.10;94514.13;5057424;28;20201;-71
2023/08/28 06:55:39;;;;;;;5.78;5.28;;;;;;;23.08;54.00;94516.94;5074868;28;20193;-71
2023/08/28 06:58:06;;;;;;;7.18;6.25;;;;;;;23.02;51.64;94516.72;5074959;28;20189;-71
2023/08/28 07:00:33;;;;;;;8.45;6.05;;;;;;;23.01;52.62;94517.16;5057222;28;20207;-71
2023/08/28 07:03:00;;;;;;;6.35;5.35;;;;;;;23.06;53.55;94514.59;5056970;28;20199;-72
2023/08/28 07:05:28;;;;;;;5.65;5.03;;;;;;;23.10;53.97;94513.69;5074540;28;20192;-71
2023/08/28 07:07:55;;;;;;;6.15;5.55;;;;;;;23.21;53.57;94502.91;5074767;28;20216;-71
2023/08/28 07:10:22;;;;;;;5.90;5.30;;;;;;;23.29;53.37;94507.06;5057554;28;20197;-71
2023/08/28 07:12:49;;;;;;;5.60;5.05;;;;;;;23.40;52.49;94512.34;5074752;28;20192;-71
2023/08/28 07:15:54;;;;;;;6.20;5.40;;;;;;;23.52;51.81;94509.53;5074803;28;20267;-75
2023/08/28 07:18:21;;;;;;;8.95;5.75;;;;;;;23.60;52.13;94512.91;5060522;28;20235;-74
2023/08/28 07:20:49;;;;;;;5.75;5.15;;;;;;;23.63;51.92;94512.00;5074648;28;20181;-72
2023/08/28 07:23:16;;;;;;;7.70;6.00;;;;;;;23.68;51.65;94519.16;5059357;28;20264;-72
2023/08/28 07:25:44;;;;;;;5.72;5.13;;;;;;;23.67;51.49;94511.91;5078490;28;20185;-71
2023/08/28 07:28:11;;;;;;;5.85;5.25;;;;;;;23.67;50.62;94520.38;5060857;28;20224;-71
2023/08/28 07:30:38;;;;;;;6.78;5.55;;;;;;;23.66;50.43;94513.13;5061008;28;20201;-72
2023/08/28 07:33:05;;;;;;;6.05;5.30;;;;;;;23.63;50.22;94505.59;5061051;28;20299;-71
2023/08/28 07:35:34;;;;;;;6.68;5.72;;;;;;;23.61;50.10;94517.31;5060709;28;20258;-71
2023/08/28 07:38:05;;;;;;;5.72;5.20;;;;;;;23.64;49.71;94507.97;5077915;28;20609;-71
2023/08/28 07:40:32;;;;;;;6.25;5.15;;;;;;;23.71;49.11;94509.78;5060321;28;20204;-71
2023/08/28 07:42:59;;;;;;;6.43;5.32;;;;;;;23.73;48.80;94513.72;5078141;28;20201;-72
2023/08/28 07:45:26;;;;;;;6.50;5.07;;;;;;;23.74;49.17;94514.50;5060650;28;20235;-72
2023/08/28 07:47:52;;;;;;;6.72;5.82;;;;;;;23.78;49.23;94510.34;5077801;28;20209;-71
2023/08/28 07:50:19;;;;;;;6.47;5.28;;;;;;;23.87;49.44;94517.31;5060720;28;20197;-71
2023/08/28 07:52:46;;;;;;;6.70;5.47;;;;;;;23.91;49.11;94515.16;5077242;28;20197;-71
2023/08/28 07:55:14;;;;;;;10.27;5.57;;;;;;;23.95;49.30;94513.81;5060346;28;20197;-71
2023/08/28 07:57:41;;;;;;;5.63;4.85;;;;;;;24.06;49.84;94521.13;5060031;28;20201;-71
2023/08/28 08:00:13;;;;;;;5.70;5.10;;;;;;;24.24;49.56;94516.44;5060049;28;20193;-71
2023/08/28 08:02:39;;;;;;;6.18;5.57;;;;;;;24.41;48.76;94514.28;5060140;28;20589;-71
2023/08/28 08:05:07;;;;;;;6.28;5.55;;;;;;;24.51;48.97;94517.97;5077544;28;20185;-71
2023/08/28 08:07:34;;;;;;;6.82;6.07;;;;;;;24.57;48.36;94518.16;5076764;28;20252;-71
2023/08/28 08:10:01;;;;;;;6.18;5.43;;;;;;;24.62;48.54;94511.94;5077469;28;20178;-71
2023/08/28 08:12:29;;;;;;;7.15;5.38;;;;;;;24.74;48.34;94514.69;5060320;28;20207;-71
2023/08/28 08:14:56;;;;;;;8.13;6.00;;;;;;;24.79;47.92;94507.69;5077706;28;20191;-72
2023/08/28 08:17:22;;;;;;;6.65;5.65;;;;;;;24.85;47.83;94517.13;5060076;28;20197;-72
2023/08/28 08:19:49;;;;;;;6.35;5.72;;;;;;;24.91;48.33;94511.66;5077257;28;20192;-71
2023/08/28 08:22:16;;;;;;;6.78;6.07;;;;;;;24.97;48.10;94504.19;5060327;28;20201;-71
2023/08/28 08:24:42;;;;;;;8.73;6.35;;;;;;;25.15;47.58;94501.50;5077392;28;20185;-71
2023/08/28 08:27:09;;;;;;;6.85;6.25;;;;;;;25.28;48.04;94503.47;5059887;28;20213;-71
2023/08/28 08:29:37;;;;;;;7.20;6.50;;;;;;;25.40;47.75;94511.06;5059694;28;20262;-71
2023/08/28 08:32:05;;;;;;;6.68;6.00;;;;;;;25.53;47.57;94496.81;5077319;28;20201;-72
2023/08/28 08:34:33;;;;;;;7.15;6.15;;;;;;;25.58;47.41;94497.03;5076766;28;20192;-71
2023/08/28 08:36:59;;;;;;;6.82;6.20;;;;;;;25.66;47.48;94500.34;5059661;28;20196;-71
2023/08/28 08:39:26;;;;;;;6.47;5.88;;;;;;;25.75;46.89;94508.06;5059649;28;20189;-71
2023/08/28 08:41:54;;;;;;;7.70;6.30;;;;;;;25.78;46.82;94495.81;5059429;28;20201;-71
2023/08/28 08:44:21;;;;;;;7.20;6.53;;;;;;;26.03;45.79;94494.81;5076463;28;20241;-72
2023/08/28 08:46:49;;;;;;;14.68;13.48;;;;;;;26.21;45.60;94483.56;5059583;28;20201;-72
2023/08/28 08:49:20;;;;;;;13.18;11.85;;;;;;;26.24;45.36;94484.66;5076824;28;20586;-71
2023/08/28 08:51:47;;;;;;;9.20;8.40;;;;;;;26.49;44.57;94483.63;5076603;28;20177;-71
2023/08/28 08:54:19;;;;;;;6.20;5.63;;;;;;;26.77;43.91;94479.53;5059456;28;20193;-71
2023/08/28 08:56:48;;;;;;;6.03;5.53;;;;;;;27.08;43.68;94475.69;5076468;28;20211;-71
2023/08/28 08:59:15;;;;;;;7.72;5.93;;;;;;;27.07;43.75;94471.28;5059234;28;20200;-71
2023/08/28 09:01:42;;;;;;;7.22;6.63;;;;;;;27.00;43.30;94466.75;5059051;28;20197;-71
2023/08/28 09:04:11;;;;;;;7.20;5.97;;;;;;;27.16;43.01;94462.78;5059078;28;20201;-72
2023/08/28 09:06:38;;;;;;;6.35;5.82;;;;;;;27.29;42.67;94456.94;5058993;28;20361;-71
2023/08/28 09:09:06;;;;;;;6.30;5.70;;;;;;;27.31;42.72;94463.72;5076527;28;20686;-71
2023/08/28 09:11:36;;;;;;;6.53;5.53;;;;;;;27.29;43.24;94456.94;5058911;28;20193;-72
2023/08/28 09:14:04;;;;;;;6.65;6.00;;;;;;;27.38;43.06;94451.25;5058902;28;20200;-71
2023/08/28 09:16:32;;;;;;;8.40;5.93;;;;;;;27.40;42.07;94453.59;5058706;28;20247;-71
2023/08/28 09:19:00;;;;;;;7.20;6.50;;;;;;;27.32;42.43;94444.69;5076225;28;20268;-71
2023/08/28 09:21:34;;;;;;;6.57;5.90;;;;;;;27.31;42.45;94443.13;5076338;28;20193;-71
2023/08/28 09:24:01;;;;;;;6.85;6.07;;;;;;;27.25;42.45;94433.69;5076265;28;20203;-71
2023/08/28 09:26:28;;;;;;;6.97;5.47;;;;;;;27.28;41.38;94430.69;5058905;28;20205;-71
2023/08/28 09:29:02;;;;;;;6.90;5.80;;;;;;;27.49;40.82;94425.25;5076130;28;20213;-70
2023/08/28 09:31:29;;;;;;;5.70;5.20;;;;;;;27.73;39.07;94420.41;5058302;28;20232;-71
2023/08/28 09:33:56;;;;;;;5.25;4.75;;;;;;;28.04;38.49;94410.81;5075958;28;20212;-70
2023/08/28 09:36:24;;;;;;;5.63;4.82;;;;;;;28.31;37.84;94413.41;5076180;28;20263;-71
2023/08/28 09:38:52;;;;;;;5.70;4.93;;;;;;;28.48;37.73;94410.94;5076024;28;20205;-71
2023/08/28 09:41:20;;;;;;;5.82;5.00;;;;;;;28.38;38.19;94412.28;5058390;28;20213;-70
2023/08/28 09:43:46;;;;;;;5.90;5.10;;;;;;;28.27;38.71;94412.81;5054772;28;20557;-71
2023/08/28 09:46:13;;;;;;;7.03;5.30;;;;;;;28.09;39.56;94404.47;5054766;28;20210;-71
2023/08/28 09:48:40;;;;;;;5.45;5.00;;;;;;;28.14;38.37;94398.09;5054561;28;20228;-71
2023/08/28 09:51:08;;;;;;;5.53;5.03;;;;;;;28.30;37.85;94392.00;5055884;28;20280;-71
2023/08/28 09:53:35;;;;;;;5.95;5.35;;;;;;;28.14;38.51;94391.66;5054408;28;20186;-71
2023/08/28 09:56:04;;;;;;;6.45;4.93;;;;;;;28.07;37.97;94387.16;5055212;28;20193;-71
2023/08/28 09:58:31;;;;;;;5.28;4.78;;;;;;;28.11;38.03;94387.75;5054837;28;20190;-72
2023/08/28 10:00:58;;;;;;;5.43;4.93;;;;;;;28.14;37.79;94381.09;5054962;28;20606;-71
2023/08/28 10:03:26;;;;;;;6.22;4.88;;;;;;;28.20;37.72;94382.00;5054711;28;20251;-71
2023/08/28 10:05:54;;;;;;;5.82;5.25;;;;;;;28.64;36.33;94375.66;5054988;28;20194;-71
2023/08/28 10:08:21;;;;;;;5.97;5.38;;;;;;;28.85;36.43;94370.88;5055372;28;20210;-71
2023/08/28 10:10:48;;;;;;;6.13;5.00;;;;;;;28.90;36.17;94366.56;5054917;28;20194;-71
2023/08/28 10:13:18;;;;;;;5.78;5.15;;;;;;;28.89;35.93;94374.28;5055483;28;20217;-71
2023/08/28 10:15:51;;;;;;;5.90;4.35;;;;;;;28.89;35.79;94365.78;5054982;28;20185;-70
2023/08/28 10:18:21;;;;;;;8.00;4.78;;;;;;;29.06;35.09;94362.47;5055392;28;20268;-70
2023/08/28 10:20:49;;;;;;;6.45;5.03;;;;;;;29.22;34.44;94354.22;5054587;28;20201;-71
2023/08/28 10:23:16;;;;;;;5.05;4.65;;;;;;;29.07;34.92;94356.31;5054457;28;20213;-71
2023/08/28 10:25:44;;;;;;;5.93;4.75;;;;;;;29.14;34.61;94353.06;5054201;28;20206;-71
2023/08/28 10:28:11;;;;;;;5.47;4.50;;;;;;;29.09;34.55;94356.59;5071448;28;20217;-71
2023/08/28 10:30:40;;;;;;;5.22;4.40;;;;;;;29.04;34.59;94351.59;5055135;28;20201;-71
2023/08/28 10:33:07;;;;;;;5.22;4.72;;;;;;;29.07;34.66;94356.31;5055215;28;20189;-71
2023/08/28 10:35:34;;;;;;;7.25;4.60;;;;;;;29.22;34.32;94336.41;5054746;28;20213;-70
2023/08/28 10:38:03;;;;;;;4.95;4.43;;;;;;;29.17;34.26;94337.88;5054377;28;20275;-71
2023/08/28 10:40:30;;;;;;;6.15;4.15;;;;;;;29.20;34.02;94333.28;5055097;28;20194;-70
2023/08/28 10:42:58;;;;;;;4.88;4.38;;;;;;;29.10;34.02;94326.94;5056108;28;20630;-70
2023/08/28 10:45:24;;;;;;;5.13;4.55;;;;;;;29.01;34.39;94316.50;5057172;28;20208;-70
2023/08/28 10:47:52;;;;;;;4.75;4.05;;;;;;;29.13;33.96;94319.50;5057353;28;20220;-71
2023/08/28 10:50:19;;;;;;;6.03;4.70;;;;;;;29.09;32.93;94322.53;5057402;28;20214;-71
2023/08/28 10:52:46;;;;;;;7.28;5.28;;;;;;;29.20;33.80;94311.34;5057117;28;20311;-71
2023/08/28 10:55:17;;;;;;;6.38;4.32;;;;;;;29.20;33.59;94313.41;5074977;28;20231;-71
2023/08/28 10:57:50;;;;;;;4.70;4.18;;;;;;;29.13;33.56;94311.75;5077657;28;20192;-70
2023/08/28 11:00:18;;;;;;;4.72;4.10;;;;;;;29.40;33.18;94307.75;5079024;28;20189;-70
2023/08/28 11:03:07;;;;;;;4.88;4.18;;;;;;;29.63;32.74;94305.25;5078968;28;20193;-70
2023/08/28 11:05:34;;;;;;;5.28;4.18;;;;;;;29.68;31.94;94307.41;5078849;28;20193;-70
2023/08/28 11:08:04;;;;;;;6.20;4.10;;;;;;;29.67;32.66;94300.94;5078938;28;20205;-70
2023/08/28 11:10:31;;;;;;;5.28;4.72;;;;;;;29.77;32.67;94295.09;5061347;28;20209;-70
2023/08/28 11:13:02;;;;;;;6.97;3.97;;;;;;;29.82;31.98;94308.63;5078803;28;20262;-71
2023/08/28 11:15:30;;;;;;;5.97;4.10;;;;;;;29.80;31.85;94300.56;5078661;28;20197;-70
2023/08/28 11:18:28;;;;;;;4.40;4.10;;;;;;;29.79;32.53;94287.66;5061327;28;20197;-70
2023/08/28 11:20:55;;;;;;;4.63;4.22;;;;;;;29.89;32.28;94289.06;5078704;28;20193;-71
2023/08/28 11:23:24;;;;;;;4.40;4.00;;;;;;;29.94;31.43;94276.97;5060771;28;20197;-71
2023/08/28 11:25:51;;;;;;;4.70;4.20;;;;;;;30.05;31.26;94273.47;5078519;28;20197;-70
2023/08/28 11:28:25;;;;;;;6.28;4.57;;;;;;;30.03;31.76;94275.25;5060858;28;20233;-70
2023/08/28 11:30:52;;;;;;;5.22;4.20;;;;;;;29.95;31.76;94267.16;5060911;28;20200;-71
2023/08/28 11:33:20;;;;;;;5.25;4.28;;;;;;;29.94;31.53;94259.13;5061054;28;20185;-71
2023/08/28 11:35:48;;;;;;;5.20;4.70;;;;;;;30.47;31.29;94257.91;5060429;28;20189;-70
2023/08/28 11:38:17;;;;;;;4.82;4.32;;;;;;;30.67;30.97;94257.81;5078264;28;20193;-71